Round Spring, Missouri
Current Conditions -  °F | °C
As of 1:53 PM on Saturday 25 Oct 2014 (Local Time) from KUNO Reporting Station
Clear Clear  
Wind Chill: 81°   Ceiling: Unl
Heat Index: 82°   Visibility: 10mi
Dew Point: 62°   Wind: 8mph
Humidity: 52%   Direction: 300°WNW
Pressure: 30.06"   Gusts: NA
Location:  37.1833°N, 91.4819°W
Report Text: KUNO 251853Z AUTO 30007KT 270V340 10SM CLR 27/17 A3006 RMK AO2 SLP168 T02720167
Loading
Personal Weather Stations






























Interactive Weather Map
Tropical Storm Tracking
New forecast layout! Learn more

10-Day Weather Forecast

Advertisements
Track Severe Weather on mobile